Flight Track Log - Related Links

Times and Time Zones

All times are in EDT time to prevent confusion due to time zone crossing. See the UCA3599 flight status page for this flight to view local times or setup timezone preferences in your user account.

Time Position Orientation Groundspeed Altitude Reporting Facility
EDT Latitude Longitude Course Direction KTS MPH feet Rate Location/Type
Sat 06:16:51 AM 42.1442 -76.0289 189° South 161 185 3,700  Level New York Center
Sat 06:17:51 AM 42.0986 -76.0700 214° Southwest 180 207 4,900 1,100 Climbing New York Center
Sat 06:18:51 AM 42.0444 -76.1217 215° Southwest 208 239 5,900 1,000 Climbing New York Center
Sat 06:19:51 AM 41.9989 -76.1625 214° Southwest 222 255 6,900 1,000 Climbing New York Center
Sat 06:20:51 AM 41.9508 -76.2089 216° Southwest 227 261 7,900 1,050 Climbing New York Center
Sat 06:21:00 AM 41.5101 -76.3098 189° South  Level Estimated
Sat 06:21:51 AM 41.8944 -76.2600 214° Southwest 227 261 9,000  Level New York Center
Sat 06:22:51 AM 41.8383 -76.2997 208° Southwest 227 261 9,900 900 Climbing New York Center
Sat 06:23:51 AM 41.7828 -76.3286 201° Southwest 232 267 10,800 900 Climbing New York Center
Sat 06:24:51 AM 41.7231 -76.3625 203° Southwest 240 276 11,700 1,000 Climbing New York Center
Sat 06:25:51 AM 41.6567 -76.3986 202° Southwest 240 276 12,800 1,100 Climbing New York Center
Sat 06:26:51 AM 41.5947 -76.4350 204° Southwest 235 270 13,900 950 Climbing New York Center
Sat 06:27:51 AM 41.5367 -76.4689 204° Southwest 235 270 14,700 850 Climbing New York Center
Sat 06:28:51 AM 41.4811 -76.4975 201° Southwest 235 270 15,600 650 Climbing New York Center
Sat 06:29:51 AM 41.4192 -76.5336 204° Southwest 235 270 16,000 200 Climbing New York Center
Sat 06:30:51 AM 41.3461 -76.5772 204° Southwest 261 300 16,000  Level New York Center
Sat 06:31:51 AM 41.2733 -76.6150 201° Southwest 270 311 16,000  Level New York Center
Sat 06:32:51 AM 41.2092 -76.6508 203° Southwest 280 322 16,000  Level New York Center
Sat 06:33:51 AM 41.1297 -76.6964 203° Southwest 280 322 16,000  Level New York Center
Sat 06:34:51 AM 41.0569 -76.7367 203° Southwest 280 322 16,000  Level New York Center
Sat 06:35:51 AM 40.9861 -76.7744 202° Southwest 280 322 16,000  Level New York Center
Sat 06:36:51 AM 40.9239 -76.8131 205° Southwest 280 322 16,000  Level New York Center
Sat 06:37:51 AM 40.8467 -76.8556 203° Southwest 280 322 16,000  Level New York Center
Sat 06:38:51 AM 40.7783 -76.8878 200° South 280 322 16,000  Level New York Center
Sat 06:39:51 AM 40.6958 -76.9133 193° South 280 322 16,000  Level New York Center
Sat 06:40:51 AM 40.6278 -76.9347 193° South 280 322 16,000  Level New York Center
Sat 06:41:51 AM 40.5472 -76.9603 194° South 281 323 16,000  Level New York Center
Sat 06:42:51 AM 40.4775 -76.9814 193° South 287 330 16,000  Level New York Center
Sat 06:43:51 AM 40.3947 -77.0064 193° South 282 325 16,000 -286 Level New York Center
Sat 06:46:00 AM 40.2333 -77.0500 192° South 298 343 15,100 -462 Descending Potomac TRACON
Sat 06:47:06 AM 40.1333 -77.0833 194° South 294 338 14,500 -500 Descending Potomac TRACON
Sat 06:48:00 AM 40.0667 -77.1000 191° South 292 336 14,100 -474 Descending Potomac TRACON
Sat 06:49:00 AM 40.0000 -77.1333 201° Southwest 290 334 13,600 -600 Descending Potomac TRACON
Sat 06:50:00 AM 39.9167 -77.1667 197° South 292 336 12,900 -842 Descending Potomac TRACON
Sat 06:50:54 AM 39.8333 -77.1833 189° South 297 342 12,000 -1,046 Descending Potomac TRACON
Sat 06:51:49 AM 39.7667 -77.2167 201° Southwest 299 344 11,000 -1,304 Descending Potomac TRACON
Sat 06:52:49 AM 39.7000 -77.2500 201° Southwest 294 338 9,500 -1,368 Descending Potomac TRACON
Sat 06:53:43 AM 39.6167 -77.2833 197° South 283 326 8,400 -789 Descending Potomac TRACON
Sat 06:54:43 AM 39.5500 -77.3000 191° South 262 302 8,000 -417 Descending Potomac TRACON
Sat 06:55:38 AM 39.4833 -77.3333 201° Southwest 263 303 7,600 -495 Descending Potomac TRACON
Sat 06:56:32 AM 39.4167 -77.3500 191° South 268 308 7,100 -737 Descending Potomac TRACON
Sat 06:57:32 AM 39.3500 -77.3667 191° South 277 319 6,200 -1,053 Descending Potomac TRACON
Sat 06:58:26 AM 39.2833 -77.3667 180° South 271 312 5,100 -1,000 Descending Potomac TRACON
Sat 06:59:26 AM 39.2000 -77.3667 180° South 263 303 4,300 -545 Descending Potomac TRACON
Sat 07:00:27 AM 39.1333 -77.3500 169° South 252 290 4,000 -209 Descending Potomac TRACON
Sat 07:01:21 AM 39.0667 -77.3500 180° South 251 289 3,900 -316 Descending Potomac TRACON
Sat 07:02:21 AM 39.0000 -77.3500 180° South 258 297 3,400 -450 Descending Potomac TRACON
Sat 07:03:21 AM 38.9333 -77.3500 180° South 256 295 3,000 -250 Descending Potomac TRACON
Sat 07:04:21 AM 38.8667 -77.3500 180° South 238 274 2,900 -500 Descending Potomac TRACON
Sat 07:05:21 AM 38.8167 -77.3833 207° Southwest 218 251 2,000 -450 Descending Potomac TRACON
Sat 07:06:21 AM 38.8333 -77.4333 293° West 175 201 2,000 -350 Level Potomac TRACON
Sat 07:07:21 AM 38.8667 -77.4333 360° North 154 177 1,300 -650 Descending Potomac TRACON
Sat 07:08:21 AM 38.9167 -77.4333 360° North 123 142 700 -600 Descending Potomac TRACON
Sat 07:10:00 AM 38.9333 -77.4500 349° North  Level FlightAware Approximate
Sat 07:17:00 AM 38.9474 -77.4599 349° North  Level Estimated
Sat 07:18:00 AM 38.9474 -77.4599 349° North  Level Estimated

Login

Don't have an account? Register now (free) for customized features, flight alerts, and more!